sensor_id;sensor_type;location;lat;lon;timestamp;pressure;altitude;pressure_sealevel;temperature;humidity
43217;BME280;60511;42.686;23.300;2023-07-09T00:00:34;95144.88;;;27.35;nan
43217;BME280;60511;42.686;23.300;2023-07-09T00:02:35;95141.38;;;27.35;nan
43217;BME280;60511;42.686;23.300;2023-07-09T00:04:36;95144.88;;;27.35;nan
43217;BME280;60511;42.686;23.300;2023-07-09T00:06:36;95139.09;;;27.37;nan
43217;BME280;60511;42.686;23.300;2023-07-09T00:08:36;95139.50;;;27.39;nan
43217;BME280;60511;42.686;23.300;2023-07-09T00:10:40;95136.72;;;27.35;nan
43217;BME280;60511;42.686;23.300;2023-07-09T00:12:41;95131.72;;;27.37;nan
43217;BME280;60511;42.686;23.300;2023-07-09T00:14:41;95132.06;;;27.36;nan
43217;BME280;60511;42.686;23.300;2023-07-09T00:16:43;95133.66;;;27.37;nan
43217;BME280;60511;42.686;23.300;2023-07-09T00:18:44;95132.06;;;27.36;nan
43217;BME280;60511;42.686;23.300;2023-07-09T00:20:45;95127.38;;;27.33;nan
43217;BME280;60511;42.686;23.300;2023-07-09T00:22:48;95129.34;;;27.36;nan
43217;BME280;60511;42.686;23.300;2023-07-09T00:24:52;95128.22;;;27.37;nan
43217;BME280;60511;42.686;23.300;2023-07-09T00:26:52;95131.66;;;27.34;nan
43217;BME280;60511;42.686;23.300;2023-07-09T00:28:52;95134.00;;;27.35;nan
43217;BME280;60511;42.686;23.300;2023-07-09T00:30:52;95130.16;;;27.36;nan
43217;BME280;60511;42.686;23.300;2023-07-09T00:32:53;95123.50;;;27.34;nan
43217;BME280;60511;42.686;23.300;2023-07-09T00:34:54;95128.22;;;27.37;nan
43217;BME280;60511;42.686;23.300;2023-07-09T00:36:56;95130.94;;;27.37;nan
43217;BME280;60511;42.686;23.300;2023-07-09T00:38:56;95127.44;;;27.36;nan
43217;BME280;60511;42.686;23.300;2023-07-09T00:42:59;95122.38;;;27.35;nan
43217;BME280;60511;42.686;23.300;2023-07-09T00:45:00;95116.94;;;27.35;nan
43217;BME280;60511;42.686;23.300;2023-07-09T00:49:27;95118.13;;;27.37;nan
43217;BME280;60511;42.686;23.300;2023-07-09T00:51:29;95116.19;;;27.38;nan
43217;BME280;60511;42.686;23.300;2023-07-09T00:53:29;95110.31;;;27.36;nan
43217;BME280;60511;42.686;23.300;2023-07-09T00:55:31;95114.63;;;27.37;nan
43217;BME280;60511;42.686;23.300;2023-07-09T00:57:32;95105.69;;;27.36;nan
43217;BME280;60511;42.686;23.300;2023-07-09T00:59:33;95109.19;;;27.37;nan
43217;BME280;60511;42.686;23.300;2023-07-09T01:01:34;95103.34;;;27.35;nan
43217;BME280;60511;42.686;23.300;2023-07-09T01:03:39;95113.03;;;27.36;nan
43217;BME280;60511;42.686;23.300;2023-07-09T01:05:43;95110.75;;;27.38;nan
43217;BME280;60511;42.686;23.300;2023-07-09T01:07:44;95111.13;;;27.36;nan
43217;BME280;60511;42.686;23.300;2023-07-09T01:09:48;95113.44;;;27.34;nan
43217;BME280;60511;42.686;23.300;2023-07-09T01:11:48;95108.84;;;27.38;nan
43217;BME280;60511;42.686;23.300;2023-07-09T01:13:52;95110.31;;;27.36;nan
43217;BME280;60511;42.686;23.300;2023-07-09T01:15:54;95108.78;;;27.35;nan
43217;BME280;60511;42.686;23.300;2023-07-09T01:17:55;95108.78;;;27.35;nan
43217;BME280;60511;42.686;23.300;2023-07-09T01:19:56;95106.47;;;27.37;nan
43217;BME280;60511;42.686;23.300;2023-07-09T01:21:57;95105.28;;;27.34;nan
43217;BME280;60511;42.686;23.300;2023-07-09T01:24:13;95103.69;;;27.33;nan
43217;BME280;60511;42.686;23.300;2023-07-09T01:26:15;95098.69;;;27.35;nan
43217;BME280;60511;42.686;23.300;2023-07-09T01:28:16;95091.69;;;27.34;nan
43217;BME280;60511;42.686;23.300;2023-07-09T01:30:24;95094.03;;;27.36;nan
43217;BME280;60511;42.686;23.300;2023-07-09T01:32:25;95090.09;;;27.33;nan
43217;BME280;60511;42.686;23.300;2023-07-09T01:34:25;95090.88;;;27.34;nan
43217;BME280;60511;42.686;23.300;2023-07-09T01:36:26;95098.63;;;27.32;nan
43217;BME280;60511;42.686;23.300;2023-07-09T01:38:28;95090.88;;;27.34;nan
43217;BME280;60511;42.686;23.300;2023-07-09T01:40:32;95099.84;;;27.34;nan
43217;BME280;60511;42.686;23.300;2023-07-09T01:42:32;95097.91;;;27.35;nan
43217;BME280;60511;42.686;23.300;2023-07-09T01:44:33;95102.56;;;27.34;nan
43217;BME280;60511;42.686;23.300;2023-07-09T01:46:33;95100.97;;;27.33;nan
43217;BME280;60511;42.686;23.300;2023-07-09T01:48:34;95103.34;;;27.35;nan
43217;BME280;60511;42.686;23.300;2023-07-09T01:50:41;95112.28;;;27.35;nan
43217;BME280;60511;42.686;23.300;2023-07-09T01:52:43;95110.72;;;27.34;nan
43217;BME280;60511;42.686;23.300;2023-07-09T01:54:44;95107.19;;;27.34;nan
43217;BME280;60511;42.686;23.300;2023-07-09T01:56:49;95105.63;;;27.33;nan
43217;BME280;60511;42.686;23.300;2023-07-09T01:58:49;95111.84;;;27.33;nan
43217;BME280;60511;42.686;23.300;2023-07-09T02:00:50;95115.72;;;27.32;nan
43217;BME280;60511;42.686;23.300;2023-07-09T02:02:50;95117.28;;;27.33;nan
43217;BME280;60511;42.686;23.300;2023-07-09T02:04:53;95120.78;;;27.34;nan
43217;BME280;60511;42.686;23.300;2023-07-09T02:06:53;95111.84;;;27.33;nan
43217;BME280;60511;42.686;23.300;2023-07-09T02:08:54;95119.22;;;27.33;nan
43217;BME280;60511;42.686;23.300;2023-07-09T02:10:54;95118.03;;;27.30;nan
43217;BME280;60511;42.686;23.300;2023-07-09T02:12:54;95112.22;;;27.32;nan
43217;BME280;60511;42.686;23.300;2023-07-09T02:14:55;95110.66;;;27.31;nan
43217;BME280;60511;42.686;23.300;2023-07-09T02:16:55;95116.50;;;27.33;nan
43217;BME280;60511;42.686;23.300;2023-07-09T02:18:55;95115.72;;;27.32;nan
43217;BME280;60511;42.686;23.300;2023-07-09T02:20:56;95117.66;;;27.32;nan
43217;BME280;60511;42.686;23.300;2023-07-09T02:22:56;95116.50;;;27.33;nan
43217;BME280;60511;42.686;23.300;2023-07-09T02:24:56;95112.22;;;27.32;nan
43217;BME280;60511;42.686;23.300;2023-07-09T02:26:58;95116.50;;;27.33;nan
43217;BME280;60511;42.686;23.300;2023-07-09T02:28:58;95119.59;;;27.31;nan
43217;BME280;60511;42.686;23.300;2023-07-09T02:31:00;95123.88;;;27.32;nan
43217;BME280;60511;42.686;23.300;2023-07-09T02:33:00;95122.72;;;27.33;nan
43217;BME280;60511;42.686;23.300;2023-07-09T02:35:01;95128.09;;;27.30;nan
43217;BME280;60511;42.686;23.300;2023-07-09T02:37:01;95127.03;;;27.34;nan
43217;BME280;60511;42.686;23.300;2023-07-09T02:39:01;95118.44;;;27.32;nan
43217;BME280;60511;42.686;23.300;2023-07-09T02:41:02;95126.19;;;27.30;nan
43217;BME280;60511;42.686;23.300;2023-07-09T02:43:02;95131.66;;;27.34;nan
43217;BME280;60511;42.686;23.300;2023-07-09T02:45:03;95131.66;;;27.34;nan
43217;BME280;60511;42.686;23.300;2023-07-09T02:47:04;95135.94;;;27.35;nan
43217;BME280;60511;42.686;23.300;2023-07-09T02:49:04;95145.22;;;27.30;nan
43217;BME280;60511;42.686;23.300;2023-07-09T02:51:05;95138.56;;;27.28;nan
43217;BME280;60511;42.686;23.300;2023-07-09T02:53:05;95144.81;;;27.32;nan
43217;BME280;60511;42.686;23.300;2023-07-09T02:55:06;95143.63;;;27.29;nan
43217;BME280;60511;42.686;23.300;2023-07-09T02:57:06;95145.56;;;27.29;nan
43217;BME280;60511;42.686;23.300;2023-07-09T02:59:09;95147.53;;;27.32;nan
43217;BME280;60511;42.686;23.300;2023-07-09T03:01:09;95146.34;;;27.29;nan
43217;BME280;60511;42.686;23.300;2023-07-09T03:03:10;95150.25;;;27.32;nan
43217;BME280;60511;42.686;23.300;2023-07-09T03:05:11;95153.38;;;27.30;nan
43217;BME280;60511;42.686;23.300;2023-07-09T03:07:11;95158.41;;;27.32;nan
43217;BME280;60511;42.686;23.300;2023-07-09T03:09:11;95161.09;;;27.28;nan
43217;BME280;60511;42.686;23.300;2023-07-09T03:11:12;95164.25;;;27.30;nan
43217;BME280;60511;42.686;23.300;2023-07-09T03:13:13;95157.22;;;27.29;nan
43217;BME280;60511;42.686;23.300;2023-07-09T03:15:13;95159.16;;;27.29;nan
43217;BME280;60511;42.686;23.300;2023-07-09T03:17:14;95155.66;;;27.28;nan
43217;BME280;60511;42.686;23.300;2023-07-09T03:19:14;95159.56;;;27.31;nan
43217;BME280;60511;42.686;23.300;2023-07-09T03:21:14;95163.06;;;27.31;nan
43217;BME280;60511;42.686;23.300;2023-07-09T03:23:15;95162.28;;;27.31;nan
43217;BME280;60511;42.686;23.300;2023-07-09T03:25:15;95165.72;;;27.28;nan
43217;BME280;60511;42.686;23.300;2023-07-09T03:27:15;95167.66;;;27.27;nan
43217;BME280;60511;42.686;23.300;2023-07-09T03:29:16;95167.31;;;27.29;nan
43217;BME280;60511;42.686;23.300;2023-07-09T03:31:16;95172.38;;;27.30;nan
43217;BME280;60511;42.686;23.300;2023-07-09T03:33:16;95167.72;;;27.31;nan
43217;BME280;60511;42.686;23.300;2023-07-09T03:35:17;95162.66;;;27.29;nan
43217;BME280;60511;42.686;23.300;2023-07-09T03:37:17;95169.25;;;27.28;nan
43217;BME280;60511;42.686;23.300;2023-07-09T03:39:17;95168.09;;;27.29;nan
43217;BME280;60511;42.686;23.300;2023-07-09T03:41:18;95163.44;;;27.30;nan
43217;BME280;60511;42.686;23.300;2023-07-09T03:43:18;95168.44;;;27.28;nan
43217;BME280;60511;42.686;23.300;2023-07-09T03:45:18;95170.75;;;27.25;nan
43217;BME280;60511;42.686;23.300;2023-07-09T03:47:19;95164.94;;;27.27;nan
43217;BME280;60511;42.686;23.300;2023-07-09T03:49:19;95168.88;;;27.30;nan
43217;BME280;60511;42.686;23.300;2023-07-09T03:51:19;95170.03;;;27.29;nan
43217;BME280;60511;42.686;23.300;2023-07-09T03:53:20;95175.47;;;27.29;nan
43217;BME280;60511;42.686;23.300;2023-07-09T03:55:20;95166.16;;;27.30;nan
43217;BME280;60511;42.686;23.300;2023-07-09T03:57:21;95171.56;;;27.26;nan
43217;BME280;60511;42.686;23.300;2023-07-09T03:59:21;95169.59;;;27.27;nan
43217;BME280;60511;42.686;23.300;2023-07-09T04:01:21;95172.31;;;27.27;nan
43217;BME280;60511;42.686;23.300;2023-07-09T04:03:22;95173.88;;;27.28;nan
43217;BME280;60511;42.686;23.300;2023-07-09T04:05:23;95177.75;;;27.27;nan
43217;BME280;60511;42.686;23.300;2023-07-09T04:07:23;95173.03;;;27.23;nan
43217;BME280;60511;42.686;23.300;2023-07-09T04:09:23;95187.06;;;27.25;nan
43217;BME280;60511;42.686;23.300;2023-07-09T04:11:24;95178.19;;;27.29;nan
43217;BME280;60511;42.686;23.300;2023-07-09T04:13:24;95180.47;;;27.27;nan
43217;BME280;60511;42.686;23.300;2023-07-09T04:15:24;95184.75;;;27.28;nan
43217;BME280;60511;42.686;23.300;2023-07-09T04:17:25;95186.34;;;27.29;nan
43217;BME280;60511;42.686;23.300;2023-07-09T04:19:25;95189.41;;;27.27;nan
43217;BME280;60511;42.686;23.300;2023-07-09T04:21:25;95195.19;;;27.25;nan
43217;BME280;60511;42.686;23.300;2023-07-09T04:23:26;95189.41;;;27.27;nan
43217;BME280;60511;42.686;23.300;2023-07-09T04:25:26;95193.28;;;27.26;nan
43217;BME280;60511;42.686;23.300;2023-07-09T04:27:26;95199.50;;;27.27;nan
43217;BME280;60511;42.686;23.300;2023-07-09T04:29:27;95199.84;;;27.25;nan
43217;BME280;60511;42.686;23.300;2023-07-09T04:31:27;95192.88;;;27.24;nan
43217;BME280;60511;42.686;23.300;2023-07-09T04:33:28;95202.94;;;27.23;nan
43217;BME280;60511;42.686;23.300;2023-07-09T04:35:29;95206.47;;;27.24;nan
43217;BME280;60511;42.686;23.300;2023-07-09T04:37:29;95210.72;;;27.25;nan
43217;BME280;60511;42.686;23.300;2023-07-09T04:39:30;95209.59;;;27.26;nan
43217;BME280;60511;42.686;23.300;2023-07-09T04:41:31;95213.88;;;27.27;nan
43217;BME280;60511;42.686;23.300;2023-07-09T04:43:31;95204.16;;;27.26;nan
43217;BME280;60511;42.686;23.300;2023-07-09T04:45:32;95210.38;;;27.27;nan
43217;BME280;60511;42.686;23.300;2023-07-09T04:47:33;95205.72;;;27.27;nan
43217;BME280;60511;42.686;23.300;2023-07-09T04:49:33;95206.06;;;27.25;nan
43217;BME280;60511;42.686;23.300;2023-07-09T04:51:34;95202.63;;;27.29;nan
43217;BME280;60511;42.686;23.300;2023-07-09T04:53:34;95197.91;;;27.25;nan
43217;BME280;60511;42.686;23.300;2023-07-09T04:55:34;95210.03;;;27.28;nan
43217;BME280;60511;42.686;23.300;2023-07-09T04:57:35;95206.06;;;27.25;nan
43217;BME280;60511;42.686;23.300;2023-07-09T04:59:36;95205.72;;;27.27;nan
43217;BME280;60511;42.686;23.300;2023-07-09T05:01:36;95204.53;;;27.24;nan
43217;BME280;60511;42.686;23.300;2023-07-09T05:03:37;95205.72;;;27.27;nan
43217;BME280;60511;42.686;23.300;2023-07-09T05:05:45;95204.16;;;27.26;nan
43217;BME280;60511;42.686;23.300;2023-07-09T05:07:45;95207.31;;;27.28;nan
43217;BME280;60511;42.686;23.300;2023-07-09T05:09:47;95210.72;;;27.25;nan
43217;BME280;60511;42.686;23.300;2023-07-09T05:11:47;95206.06;;;27.25;nan
43217;BME280;60511;42.686;23.300;2023-07-09T05:13:47;95213.16;;;27.30;nan
43217;BME280;60511;42.686;23.300;2023-07-09T05:15:48;95213.03;;;27.23;nan
43217;BME280;60511;42.686;23.300;2023-07-09T05:17:48;95207.91;;;27.21;nan
43217;BME280;60511;42.686;23.300;2023-07-09T05:19:52;95217.78;;;27.30;nan
43217;BME280;60511;42.686;23.300;2023-07-09T05:21:52;95217.94;;;27.17;nan
43217;BME280;60511;42.686;23.300;2023-07-09T05:23:52;95225.69;;;27.15;nan
43217;BME280;60511;42.686;23.300;2023-07-09T05:25:57;95220.56;;;27.10;nan
43217;BME280;60511;42.686;23.300;2023-07-09T05:27:57;95223.63;;;27.09;nan
43217;BME280;60511;42.686;23.300;2023-07-09T05:29:58;95217.84;;;27.10;nan
43217;BME280;60511;42.686;23.300;2023-07-09T05:31:58;95219.53;;;27.18;nan
43217;BME280;60511;42.686;23.300;2023-07-09T05:33:59;95216.53;;;27.23;nan
43217;BME280;60511;42.686;23.300;2023-07-09T05:36:00;95222.38;;;27.25;nan
43217;BME280;60511;42.686;23.300;2023-07-09T05:38:02;95215.75;;;27.23;nan
43217;BME280;60511;42.686;23.300;2023-07-09T05:40:02;95216.31;;;27.13;nan
43217;BME280;60511;42.686;23.300;2023-07-09T05:42:05;95212.09;;;27.15;nan
43217;BME280;60511;42.686;23.300;2023-07-09T05:44:06;95211.72;;;27.17;nan
43217;BME280;60511;42.686;23.300;2023-07-09T05:46:06;95211.72;;;27.17;nan
43217;BME280;60511;42.686;23.300;2023-07-09T05:48:06;95219.41;;;27.11;nan
43217;BME280;60511;42.686;23.300;2023-07-09T05:50:07;95218.19;;;27.09;nan
43217;BME280;60511;42.686;23.300;2023-07-09T05:52:07;95222.84;;;27.08;nan
43217;BME280;60511;42.686;23.300;2023-07-09T05:54:08;95214.38;;;27.13;nan
43217;BME280;60511;42.686;23.300;2023-07-09T05:56:08;95209.78;;;27.17;nan
43217;BME280;60511;42.686;23.300;2023-07-09T05:58:09;95214.78;;;27.12;nan
43217;BME280;60511;42.686;23.300;2023-07-09T06:00:09;95212.75;;;27.09;nan
43217;BME280;60511;42.686;23.300;2023-07-09T06:02:11;95211.25;;;27.11;nan
43217;BME280;60511;42.686;23.300;2023-07-09T06:04:11;95217.84;;;27.10;nan
43217;BME280;60511;42.686;23.300;2023-07-09T06:06:15;95206.97;;;27.10;nan
43217;BME280;60511;42.686;23.300;2023-07-09T06:08:16;95220.25;;;27.15;nan
43217;BME280;60511;42.686;23.300;2023-07-09T06:10:16;95216.81;;;27.18;nan
43217;BME280;60511;42.686;23.300;2023-07-09T06:12:17;95216.31;;;27.13;nan
43217;BME280;60511;42.686;23.300;2023-07-09T06:14:18;95213.53;;;27.09;nan
43217;BME280;60511;42.686;23.300;2023-07-09T06:16:19;95211.31;;;27.15;nan
43217;BME280;60511;42.686;23.300;2023-07-09T06:18:20;95209.69;;;27.10;nan
43217;BME280;60511;42.686;23.300;2023-07-09T06:20:20;95201.13;;;27.08;nan
43217;BME280;60511;42.686;23.300;2023-07-09T06:22:21;95209.25;;;27.08;nan
43217;BME280;60511;42.686;23.300;2023-07-09T06:24:21;95203.34;;;27.02;nan
43217;BME280;60511;42.686;23.300;2023-07-09T06:26:21;95211.56;;;27.06;nan
43217;BME280;60511;42.686;23.300;2023-07-09T06:28:23;95204.53;;;27.05;nan
43217;BME280;60511;42.686;23.300;2023-07-09T06:30:23;95204.84;;;27.00;nan
43217;BME280;60511;42.686;23.300;2023-07-09T06:32:24;95205.63;;;27.00;nan
43217;BME280;60511;42.686;23.300;2023-07-09T06:34:24;95204.50;;;27.01;nan
43217;BME280;60511;42.686;23.300;2023-07-09T06:36:24;95203.41;;;27.06;nan
43217;BME280;60511;42.686;23.300;2023-07-09T06:38:25;95204.97;;;27.07;nan
43217;BME280;60511;42.686;23.300;2023-07-09T06:40:25;95200.38;;;27.11;nan
43217;BME280;60511;42.686;23.300;2023-07-09T06:42:26;95201.22;;;27.15;nan
43217;BME280;60511;42.686;23.300;2023-07-09T06:44:26;95192.34;;;27.18;nan
43217;BME280;60511;42.686;23.300;2023-07-09T06:46:26;95195.38;;;27.13;nan
43217;BME280;60511;42.686;23.300;2023-07-09T06:48:27;95195.06;;;27.18;nan
43217;BME280;60511;42.686;23.300;2023-07-09T06:50:28;95200.16;;;27.20;nan
43217;BME280;60511;42.686;23.300;2023-07-09T06:52:28;95202.81;;;27.16;nan
43217;BME280;60511;42.686;23.300;2023-07-09T06:54:29;95201.22;;;27.15;nan
43217;BME280;60511;42.686;23.300;2023-07-09T06:56:29;95203.22;;;27.18;nan
43217;BME280;60511;42.686;23.300;2023-07-09T06:58:30;95197.44;;;27.20;nan
43217;BME280;60511;42.686;23.300;2023-07-09T07:00:35;95201.59;;;27.14;nan
43217;BME280;60511;42.686;23.300;2023-07-09T07:02:36;95199.31;;;27.16;nan
43217;BME280;60511;42.686;23.300;2023-07-09T07:04:36;95196.47;;;27.09;nan
43217;BME280;60511;42.686;23.300;2023-07-09T07:06:36;95202.44;;;27.18;nan
43217;BME280;60511;42.686;23.300;2023-07-09T07:08:37;95193.06;;;27.15;nan
43217;BME280;60511;42.686;23.300;2023-07-09T07:10:37;95202.03;;;27.16;nan
43217;BME280;60511;42.686;23.300;2023-07-09T07:12:44;95196.94;;;27.14;nan
43217;BME280;60511;42.686;23.300;2023-07-09T07:14:44;95199.72;;;27.18;nan
43217;BME280;60511;42.686;23.300;2023-07-09T07:16:45;95205.09;;;27.14;nan
43217;BME280;60511;42.686;23.300;2023-07-09T07:18:45;95199.31;;;27.16;nan
43217;BME280;60511;42.686;23.300;2023-07-09T07:20:45;95189.94;;;27.13;nan
43217;BME280;60511;42.686;23.300;2023-07-09T07:22:46;95189.63;;;27.18;nan
43217;BME280;60511;42.686;23.300;2023-07-09T07:24:46;95187.75;;;27.22;nan
43217;BME280;60511;42.686;23.300;2023-07-09T07:26:47;95192.06;;;27.23;nan
43217;BME280;60511;42.686;23.300;2023-07-09T07:28:47;95185.03;;;27.22;nan
43217;BME280;60511;42.686;23.300;2023-07-09T07:30:57;95191.63;;;27.21;nan
43217;BME280;60511;42.686;23.300;2023-07-09T07:32:57;95184.28;;;27.22;nan
43217;BME280;60511;42.686;23.300;2023-07-09T07:34:58;95183.13;;;27.23;nan
43217;BME280;60511;42.686;23.300;2023-07-09T07:36:58;95189.63;;;27.18;nan
43217;BME280;60511;42.686;23.300;2023-07-09T07:38:58;95185.03;;;27.22;nan
43217;BME280;60511;42.686;23.300;2023-07-09T07:40:59;95170.69;;;27.22;nan
43217;BME280;60511;42.686;23.300;2023-07-09T07:43:00;95169.09;;;27.21;nan
43217;BME280;60511;42.686;23.300;2023-07-09T07:45:02;95183.47;;;27.21;nan
43217;BME280;60511;42.686;23.300;2023-07-09T07:47:03;95181.91;;;27.20;nan
43217;BME280;60511;42.686;23.300;2023-07-09T07:49:03;95187.44;;;27.24;nan
43217;BME280;60511;42.686;23.300;2023-07-09T07:51:04;95182.00;;;27.24;nan
43217;BME280;60511;42.686;23.300;2023-07-09T07:53:04;95184.34;;;27.25;nan
43217;BME280;60511;42.686;23.300;2023-07-09T07:55:07;95185.84;;;27.23;nan
43217;BME280;60511;42.686;23.300;2023-07-09T07:57:08;95172.69;;;27.25;nan
43217;BME280;60511;42.686;23.300;2023-07-09T07:59:09;95181.63;;;27.25;nan
43217;BME280;60511;42.686;23.300;2023-07-09T08:01:09;95179.69;;;27.26;nan
43217;BME280;60511;42.686;23.300;2023-07-09T08:03:09;95176.19;;;27.25;nan
43217;BME280;60511;42.686;23.300;2023-07-09T08:05:10;95173.88;;;27.28;nan
43217;BME280;60511;42.686;23.300;2023-07-09T08:07:10;95177.03;;;27.30;nan
43217;BME280;60511;42.686;23.300;2023-07-09T08:09:10;95176.59;;;27.28;nan
43217;BME280;60511;42.686;23.300;2023-07-09T08:11:11;95172.31;;;27.27;nan
43217;BME280;60511;42.686;23.300;2023-07-09T08:13:11;95168.84;;;27.26;nan
43217;BME280;60511;42.686;23.300;2023-07-09T08:15:11;95173.09;;;27.27;nan
43217;BME280;60511;42.686;23.300;2023-07-09T08:17:12;95169.25;;;27.28;nan
43217;BME280;60511;42.686;23.300;2023-07-09T08:19:12;95173.53;;;27.29;nan
43217;BME280;60511;42.686;23.300;2023-07-09T08:21:12;95164.59;;;27.29;nan
43217;BME280;60511;42.686;23.300;2023-07-09T08:23:13;95161.47;;;27.27;nan
43217;BME280;60511;42.686;23.300;2023-07-09T08:25:13;95168.09;;;27.29;nan
43217;BME280;60511;42.686;23.300;2023-07-09T08:27:14;95159.16;;;27.29;nan
43217;BME280;60511;42.686;23.300;2023-07-09T08:29:14;95164.25;;;27.30;nan
43217;BME280;60511;42.686;23.300;2023-07-09T08:31:14;95155.69;;;27.32;nan
43217;BME280;60511;42.686;23.300;2023-07-09T08:33:15;95156.84;;;27.31;nan
43217;BME280;60511;42.686;23.300;2023-07-09T08:35:16;95159.22;;;27.32;nan
43217;BME280;60511;42.686;23.300;2023-07-09T08:37:17;95157.28;;;27.33;nan
43217;BME280;60511;42.686;23.300;2023-07-09T08:39:18;95163.06;;;27.31;nan
43217;BME280;60511;42.686;23.300;2023-07-09T08:41:20;95162.34;;;27.34;nan
43217;BME280;60511;42.686;23.300;2023-07-09T08:43:46;95163.13;;;27.35;nan
43217;BME280;60511;42.686;23.300;2023-07-09T08:46:07;95164.31;;;27.37;nan
43217;BME280;60511;42.686;23.300;2023-07-09T08:48:13;95155.34;;;27.33;nan
43217;BME280;60511;42.686;23.300;2023-07-09T08:50:16;95162.34;;;27.34;nan
43217;BME280;60511;42.686;23.300;2023-07-09T08:52:23;95158.13;;;27.37;nan
43217;BME280;60511;42.686;23.300;2023-07-09T08:54:29;95165.91;;;27.38;nan
43217;BME280;60511;42.686;23.300;2023-07-09T08:56:32;95157.38;;;27.40;nan
43217;BME280;60511;42.686;23.300;2023-07-09T08:58:33;95153.47;;;27.37;nan
43217;BME280;60511;42.686;23.300;2023-07-09T09:00:35;95159.63;;;27.34;nan
43217;BME280;60511;42.686;23.300;2023-07-09T09:02:44;95164.31;;;27.37;nan
43217;BME280;60511;42.686;23.300;2023-07-09T09:04:45;95156.19;;;27.37;nan
43217;BME280;60511;42.686;23.300;2023-07-09T09:06:47;95161.25;;;27.39;nan
43217;BME280;60511;42.686;23.300;2023-07-09T09:09:03;95169.41;;;27.39;nan
43217;BME280;60511;42.686;23.300;2023-07-09T09:13:07;95168.25;;;27.40;nan
43217;BME280;60511;42.686;23.300;2023-07-09T09:15:15;95155.47;;;27.40;nan
43217;BME280;60511;42.686;23.300;2023-07-09T09:17:17;95157.00;;;27.41;nan
43217;BME280;60511;42.686;23.300;2023-07-09T09:19:20;95162.09;;;27.43;nan
43217;BME280;60511;42.686;23.300;2023-07-09T09:21:23;95157.38;;;27.40;nan
43217;BME280;60511;42.686;23.300;2023-07-09T09:23:28;95163.63;;;27.40;nan
43217;BME280;60511;42.686;23.300;2023-07-09T09:25:31;95153.16;;;27.42;nan
43217;BME280;60511;42.686;23.300;2023-07-09T09:27:31;95157.78;;;27.42;nan
43217;BME280;60511;42.686;23.300;2023-07-09T09:29:32;95157.44;;;27.43;nan
43217;BME280;60511;42.686;23.300;2023-07-09T09:31:33;95154.28;;;27.41;nan
43217;BME280;60511;42.686;23.300;2023-07-09T09:33:40;95157.44;;;27.43;nan
43217;BME280;60511;42.686;23.300;2023-07-09T09:35:42;95158.59;;;27.42;nan
43217;BME280;60511;42.686;23.300;2023-07-09T09:37:51;95158.63;;;27.46;nan
43217;BME280;60511;42.686;23.300;2023-07-09T09:39:52;95157.50;;;27.47;nan
43217;BME280;60511;42.686;23.300;2023-07-09T09:41:57;95154.78;;;27.47;nan
43217;BME280;60511;42.686;23.300;2023-07-09T09:43:57;95157.50;;;27.47;nan
43217;BME280;60511;42.686;23.300;2023-07-09T09:45:58;95150.16;;;27.51;nan
43217;BME280;60511;42.686;23.300;2023-07-09T09:48:01;95144.31;;;27.49;nan
43217;BME280;60511;42.686;23.300;2023-07-09T09:50:02;95140.81;;;27.49;nan
43217;BME280;60511;42.686;23.300;2023-07-09T09:52:03;95140.44;;;27.50;nan
43217;BME280;60511;42.686;23.300;2023-07-09T09:54:10;95139.28;;;27.51;nan
43217;BME280;60511;42.686;23.300;2023-07-09T09:56:18;95150.53;;;27.50;nan
43217;BME280;60511;42.686;23.300;2023-07-09T09:58:19;95150.94;;;27.52;nan
43217;BME280;60511;42.686;23.300;2023-07-09T10:00:23;95140.84;;;27.52;nan
43217;BME280;60511;42.686;23.300;2023-07-09T10:02:25;95138.53;;;27.54;nan
43217;BME280;60511;42.686;23.300;2023-07-09T10:04:25;95133.53;;;27.56;nan
43217;BME280;60511;42.686;23.300;2023-07-09T10:10:49;95134.00;;;27.62;nan
43217;BME280;60511;42.686;23.300;2023-07-09T10:12:53;95125.84;;;27.62;nan
43217;BME280;60511;42.686;23.300;2023-07-09T10:17:13;95125.47;;;27.63;nan
43217;BME280;60511;42.686;23.300;2023-07-09T10:19:34;95125.91;;;27.65;nan
43217;BME280;60511;42.686;23.300;2023-07-09T10:21:37;95127.84;;;27.65;nan
43217;BME280;60511;42.686;23.300;2023-07-09T10:26:44;95126.66;;;27.66;nan
43217;BME280;60511;42.686;23.300;2023-07-09T10:32:39;95124.84;;;27.74;nan
43217;BME280;60511;42.686;23.300;2023-07-09T10:37:00;95121.75;;;27.75;nan
43217;BME280;60511;42.686;23.300;2023-07-09T10:41:07;95124.88;;;27.77;nan
43217;BME280;60511;42.686;23.300;2023-07-09T10:43:52;95119.09;;;27.79;nan
43217;BME280;60511;42.686;23.300;2023-07-09T10:45:43;95119.13;;;27.82;nan
43217;BME280;60511;42.686;23.300;2023-07-09T10:47:44;95107.00;;;27.76;nan
43217;BME280;60511;42.686;23.300;2023-07-09T10:49:47;95113.22;;;27.77;nan
43217;BME280;60511;42.686;23.300;2023-07-09T10:51:49;95110.53;;;27.80;nan
43217;BME280;60511;42.686;23.300;2023-07-09T10:54:03;95117.66;;;27.89;nan
43217;BME280;60511;42.686;23.300;2023-07-09T10:56:10;95114.88;;;27.85;nan
43217;BME280;60511;42.686;23.300;2023-07-09T11:00:18;95118.84;;;27.88;nan
43217;BME280;60511;42.686;23.300;2023-07-09T11:02:26;95114.63;;;27.94;nan
43217;BME280;60511;42.686;23.300;2023-07-09T11:04:37;95119.72;;;27.95;nan
43217;BME280;60511;42.686;23.300;2023-07-09T11:06:41;95110.72;;;27.91;nan
43217;BME280;60511;42.686;23.300;2023-07-09T11:08:44;95120.50;;;27.96;nan
43217;BME280;60511;42.686;23.300;2023-07-09T11:10:55;95109.56;;;27.92;nan
43217;BME280;60511;42.686;23.300;2023-07-09T11:12:59;95121.22;;;27.93;nan
43217;BME280;60511;42.686;23.300;2023-07-09T11:15:06;95116.94;;;27.92;nan
43217;BME280;60511;42.686;23.300;2023-07-09T11:17:17;95117.00;;;27.95;nan
43217;BME280;60511;42.686;23.300;2023-07-09T11:19:18;95112.31;;;27.96;nan